SANTA FE DAM CA US current weather conditions

sailwx.info

Wind from 030 at 1 knots gusting 6

Air temperature 16.7° C
Dewpoint 12.4° C

Last reported at 2015-May-23 06:57 UTC.
Time now 2015-May-23 08:53 UTC

Location: N 34°08' W 117°57'.
View on Google Maps.

See reports from other nearby stations

  
Tides and Currents Weather Stations Pressure Air Temp Water Temp Dewpoint Dewpoint Depression Visibility Wind Speed Wind Dir Waves Ship Positions
date/time (UTC)wind fromknots sea level pressurealtimeterstation pressurevisibilityair tempwater tempwave heightnotes
2015-May-23 06:57 030 1 gusting 6 16.7
2015-May-23 05:57 090 1 gusting 6 16.7
2015-May-23 04:57 074 3 gusting 8 16.1
2015-May-23 03:57 316 2 gusting 8 17.2
2015-May-23 02:57 123 4 gusting 8 16.7
2015-May-23 01:57 072 3 gusting 6 17.8
2015-May-23 00:57 089 2 gusting 6 18.3
2015-May-22 23:57 212 2 gusting 6 18.9
2015-May-22 22:57 212 2 gusting 4 17.8
2015-May-22 21:57 284 1 gusting 5 18.9
2015-May-22 20:57 150 4 gusting 10 18.9
2015-May-22 19:57 062 4 gusting 12 18.3
2015-May-22 18:57 048 4 gusting 10 18.3
2015-May-22 17:57 228 3 gusting 7 18.3
2015-May-22 16:57 226 4 gusting 7 16.7
2015-May-22 15:57 189 3 gusting 6 16.7
2015-May-22 14:57 158 3 gusting 5 16.1
2015-May-22 13:57 219 0 gusting 2 15.0
2015-May-22 12:57 082 0 gusting 1 14.4
2015-May-22 11:57 246 0 gusting 3 14.4
2015-May-22 10:57 159 1 gusting 3 13.3
2015-May-22 09:57 157 1 gusting 4 14.4
2015-May-22 08:57 137 2 gusting 4 15.0
2015-May-22 07:57 242 0 gusting 3 15.0
2015-May-22 06:57 180 1 gusting 3 14.4
2015-May-22 05:57 230 1 gusting 6 14.4
2015-May-22 04:57 216 4 gusting 10 16.1
2015-May-22 03:57 229 5 gusting 8 16.7
2015-May-22 02:57 229 4 gusting 13 17.2
2015-May-22 01:57 247 7 gusting 12 19.4
2015-May-22 00:57 239 6 gusting 12 20.0
2015-May-21 23:57 215 6 gusting 13 21.1
2015-May-21 22:57 224 5 gusting 13 20.6
2015-May-21 21:57 249 6 gusting 12 20.6
2015-May-21 20:57 209 5 gusting 11 21.1
2015-May-21 19:57 151 3 gusting 10 23.3
2015-May-21 18:57 161 5 gusting 12 20.0
2015-May-21 17:57 343 4 gusting 10 20.6
2015-May-21 16:57 206 2 gusting 6 21.1
2015-May-21 15:57 190 2 gusting 6 18.9
2015-May-21 14:57 158 1 gusting 5 16.1
2015-May-21 13:57 049 1 gusting 4 15.6
2015-May-21 12:57 150 1 gusting 3 16.1
2015-May-21 11:57 252 0 gusting 2 15.0
2015-May-21 10:57 209 0 gusting 5 15.0
2015-May-21 09:57 142 4 gusting 7 16.1
2015-May-21 08:57 159 0 gusting 3 16.7